sensor_id;sensor_type;location;lat;lon;timestamp;P1;durP1;ratioP1;P2;durP2;ratioP2
77748;SDS011;66938;52.084;5.228;2024-01-25T00:00:02;27.1;;;6.2;;
77748;SDS011;66938;52.084;5.228;2024-01-25T00:01:42;25.0;;;5.9;;
77748;SDS011;66938;52.084;5.228;2024-01-25T00:03:18;24.3;;;6.0;;
77748;SDS011;66938;52.084;5.228;2024-01-25T00:04:54;22.9;;;6.2;;
77748;SDS011;66938;52.084;5.228;2024-01-25T00:08:06;28.0;;;6.5;;
77748;SDS011;66938;52.084;5.228;2024-01-25T00:09:42;25.3;;;6.6;;
77748;SDS011;66938;52.084;5.228;2024-01-25T00:11:18;23.5;;;6.1;;
77748;SDS011;66938;52.084;5.228;2024-01-25T00:14:31;27.1;;;6.3;;
77748;SDS011;66938;52.084;5.228;2024-01-25T00:16:07;21.6;;;5.9;;
77748;SDS011;66938;52.084;5.228;2024-01-25T00:17:43;21.6;;;5.9;;
77748;SDS011;66938;52.084;5.228;2024-01-25T00:20:55;24.3;;;6.0;;
77748;SDS011;66938;52.084;5.228;2024-01-25T00:22:31;26.8;;;6.6;;
77748;SDS011;66938;52.084;5.228;2024-01-25T00:24:07;25.0;;;5.9;;
77748;SDS011;66938;52.084;5.228;2024-01-25T00:27:20;26.6;;;6.2;;
77748;SDS011;66938;52.084;5.228;2024-01-25T00:28:57;24.2;;;5.9;;
77748;SDS011;66938;52.084;5.228;2024-01-25T00:30:33;23.9;;;6.0;;
77748;SDS011;66938;52.084;5.228;2024-01-25T00:32:09;27.6;;;6.6;;
77748;SDS011;66938;52.084;5.228;2024-01-25T00:35:22;25.0;;;5.7;;
77748;SDS011;66938;52.084;5.228;2024-01-25T00:36:58;27.3;;;6.7;;
77748;SDS011;66938;52.084;5.228;2024-01-25T00:38:35;24.8;;;5.11;;
77748;SDS011;66938;52.084;5.228;2024-01-25T00:41:49;26.4;;;6.1;;
77748;SDS011;66938;52.084;5.228;2024-01-25T00:43:27;26.1;;;6.3;;
77748;SDS011;66938;52.084;5.228;2024-01-25T00:45:05;27.6;;;6.3;;
77748;SDS011;66938;52.084;5.228;2024-01-25T00:48:17;28.7;;;6.5;;
77748;SDS011;66938;52.084;5.228;2024-01-25T00:49:54;28.3;;;6.2;;
77748;SDS011;66938;52.084;5.228;2024-01-25T00:51:30;28.8;;;6.6;;
77748;SDS011;66938;52.084;5.228;2024-01-25T00:53:06;23.5;;;6.0;;
77748;SDS011;66938;52.084;5.228;2024-01-25T00:56:19;27.0;;;6.6;;
77748;SDS011;66938;52.084;5.228;2024-01-25T00:57:56;29.2;;;6.7;;
77748;SDS011;66938;52.084;5.228;2024-01-25T00:59:33;28.5;;;6.4;;
77748;SDS011;66938;52.084;5.228;2024-01-25T01:02:46;31.9;;;6.7;;
77748;SDS011;66938;52.084;5.228;2024-01-25T01:04:23;26.0;;;6.6;;
77748;SDS011;66938;52.084;5.228;2024-01-25T01:06:00;32.3;;;6.9;;
77748;SDS011;66938;52.084;5.228;2024-01-25T01:09:13;28.2;;;6.2;;
77748;SDS011;66938;52.084;5.228;2024-01-25T01:10:49;23.9;;;6.1;;
77748;SDS011;66938;52.084;5.228;2024-01-25T01:12:25;26.2;;;6.5;;
77748;SDS011;66938;52.084;5.228;2024-01-25T01:14:01;26.9;;;6.7;;
77748;SDS011;66938;52.084;5.228;2024-01-25T01:17:13;27.4;;;6.4;;
77748;SDS011;66938;52.084;5.228;2024-01-25T01:18:50;26.5;;;6.3;;
77748;SDS011;66938;52.084;5.228;2024-01-25T01:20:27;27.8;;;7.3;;
77748;SDS011;66938;52.084;5.228;2024-01-25T01:23:39;29.5;;;6.6;;
77748;SDS011;66938;52.084;5.228;2024-01-25T01:25:15;28.4;;;6.9;;
77748;SDS011;66938;52.084;5.228;2024-01-25T01:26:51;26.4;;;6.4;;
77748;SDS011;66938;52.084;5.228;2024-01-25T01:30:04;26.5;;;6.5;;
77748;SDS011;66938;52.084;5.228;2024-01-25T01:31:40;27.9;;;6.6;;
77748;SDS011;66938;52.084;5.228;2024-01-25T01:33:17;27.3;;;6.4;;
77748;SDS011;66938;52.084;5.228;2024-01-25T01:34:53;30.0;;;6.6;;
77748;SDS011;66938;52.084;5.228;2024-01-25T01:38:05;25.4;;;6.6;;
77748;SDS011;66938;52.084;5.228;2024-01-25T01:39:42;25.7;;;7.1;;
77748;SDS011;66938;52.084;5.228;2024-01-25T01:41:18;27.9;;;6.8;;
77748;SDS011;66938;52.084;5.228;2024-01-25T01:44:34;27.2;;;6.5;;
77748;SDS011;66938;52.084;5.228;2024-01-25T01:46:11;25.0;;;6.2;;
77748;SDS011;66938;52.084;5.228;2024-01-25T01:47:56;27.8;;;6.4;;
77748;SDS011;66938;52.084;5.228;2024-01-25T01:49:33;27.3;;;6.4;;
77748;SDS011;66938;52.084;5.228;2024-01-25T01:52:45;28.4;;;6.6;;
77748;SDS011;66938;52.084;5.228;2024-01-25T01:54:22;31.6;;;6.6;;
77748;SDS011;66938;52.084;5.228;2024-01-25T01:55:59;26.6;;;5.9;;
77748;SDS011;66938;52.084;5.228;2024-01-25T01:59:13;27.7;;;6.6;;
77748;SDS011;66938;52.084;5.228;2024-01-25T02:00:50;28.9;;;6.0;;
77748;SDS011;66938;52.084;5.228;2024-01-25T02:02:26;30.0;;;6.6;;
77748;SDS011;66938;52.084;5.228;2024-01-25T02:05:38;32.6;;;7.1;;
77748;SDS011;66938;52.084;5.228;2024-01-25T02:07:17;29.6;;;6.3;;
77748;SDS011;66938;52.084;5.228;2024-01-25T02:08:53;32.21;;;7.5;;
77748;SDS011;66938;52.084;5.228;2024-01-25T02:10:30;28.4;;;7.0;;
77748;SDS011;66938;52.084;5.228;2024-01-25T02:13:42;30.4;;;6.6;;
77748;SDS011;66938;52.084;5.228;2024-01-25T02:15:19;29.7;;;6.4;;
77748;SDS011;66938;52.084;5.228;2024-01-25T02:16:55;27.5;;;6.5;;
77748;SDS011;66938;52.084;5.228;2024-01-25T02:20:08;29.9;;;6.8;;
77748;SDS011;66938;52.084;5.228;2024-01-25T02:21:45;26.1;;;7.1;;
77748;SDS011;66938;52.084;5.228;2024-01-25T02:23:21;29.0;;;6.7;;
77748;SDS011;66938;52.084;5.228;2024-01-25T02:26:35;27.2;;;6.5;;
77748;SDS011;66938;52.084;5.228;2024-01-25T02:28:12;31.5;;;7.6;;
77748;SDS011;66938;52.084;5.228;2024-01-25T02:29:48;26.2;;;6.5;;
77748;SDS011;66938;52.084;5.228;2024-01-25T02:31:24;29.0;;;6.9;;
77748;SDS011;66938;52.084;5.228;2024-01-25T02:34:36;27.8;;;6.5;;
77748;SDS011;66938;52.084;5.228;2024-01-25T02:36:12;27.8;;;6.5;;
77748;SDS011;66938;52.084;5.228;2024-01-25T02:37:49;29.1;;;6.7;;
77748;SDS011;66938;52.084;5.228;2024-01-25T02:41:06;32.0;;;6.9;;
77748;SDS011;66938;52.084;5.228;2024-01-25T02:42:42;27.9;;;7.0;;
77748;SDS011;66938;52.084;5.228;2024-01-25T02:44:18;25.8;;;6.2;;
77748;SDS011;66938;52.084;5.228;2024-01-25T02:47:30;27.6;;;6.4;;
77748;SDS011;66938;52.084;5.228;2024-01-25T02:49:06;28.2;;;6.8;;
77748;SDS011;66938;52.084;5.228;2024-01-25T02:50:42;28.2;;;6.8;;
77748;SDS011;66938;52.084;5.228;2024-01-25T02:52:19;26.0;;;6.1;;
77748;SDS011;66938;52.084;5.228;2024-01-25T02:55:31;30.0;;;6.5;;
77748;SDS011;66938;52.084;5.228;2024-01-25T02:57:07;27.3;;;6.6;;
77748;SDS011;66938;52.084;5.228;2024-01-25T02:58:43;29.4;;;6.4;;
77748;SDS011;66938;52.084;5.228;2024-01-25T03:01:55;30.0;;;6.8;;
77748;SDS011;66938;52.084;5.228;2024-01-25T03:03:36;27.7;;;6.3;;
77748;SDS011;66938;52.084;5.228;2024-01-25T03:05:12;26.8;;;6.2;;
77748;SDS011;66938;52.084;5.228;2024-01-25T03:08:24;27.9;;;5.9;;
77748;SDS011;66938;52.084;5.228;2024-01-25T03:10:00;28.0;;;6.4;;
77748;SDS011;66938;52.084;5.228;2024-01-25T03:11:37;28.8;;;6.2;;
77748;SDS011;66938;52.084;5.228;2024-01-25T03:13:13;29.8;;;6.7;;
77748;SDS011;66938;52.084;5.228;2024-01-25T03:16:26;29.6;;;6.4;;
77748;SDS011;66938;52.084;5.228;2024-01-25T03:18:03;27.4;;;5.5;;
77748;SDS011;66938;52.084;5.228;2024-01-25T03:19:39;32.5;;;5.9;;
77748;SDS011;66938;52.084;5.228;2024-01-25T03:22:51;29.2;;;6.4;;
77748;SDS011;66938;52.084;5.228;2024-01-25T03:24:27;31.8;;;6.2;;
77748;SDS011;66938;52.084;5.228;2024-01-25T03:26:03;27.2;;;5.8;;
77748;SDS011;66938;52.084;5.228;2024-01-25T03:29:15;27.6;;;6.9;;
77748;SDS011;66938;52.084;5.228;2024-01-25T03:30:51;25.1;;;5.5;;
77748;SDS011;66938;52.084;5.228;2024-01-25T03:32:28;24.5;;;5.5;;
77748;SDS011;66938;52.084;5.228;2024-01-25T03:35:40;24.9;;;5.4;;
77748;SDS011;66938;52.084;5.228;2024-01-25T03:37:16;29.8;;;6.7;;
77748;SDS011;66938;52.084;5.228;2024-01-25T03:38:55;29.2;;;6.1;;
77748;SDS011;66938;52.084;5.228;2024-01-25T03:40:31;26.7;;;6.1;;
77748;SDS011;66938;52.084;5.228;2024-01-25T03:43:43;31.5;;;6.3;;
77748;SDS011;66938;52.084;5.228;2024-01-25T03:45:20;27.4;;;6.1;;
77748;SDS011;66938;52.084;5.228;2024-01-25T03:46:56;29.5;;;6.3;;
77748;SDS011;66938;52.084;5.228;2024-01-25T03:50:08;30.4;;;6.0;;
77748;SDS011;66938;52.084;5.228;2024-01-25T03:51:44;26.4;;;5.6;;
77748;SDS011;66938;52.084;5.228;2024-01-25T03:53:20;26.8;;;5.8;;
77748;SDS011;66938;52.084;5.228;2024-01-25T03:56:32;33.0;;;6.8;;
77748;SDS011;66938;52.084;5.228;2024-01-25T03:58:08;31.2;;;6.5;;
77748;SDS011;66938;52.084;5.228;2024-01-25T03:59:45;30.1;;;6.1;;
77748;SDS011;66938;52.084;5.228;2024-01-25T04:01:21;32.3;;;6.4;;
77748;SDS011;66938;52.084;5.228;2024-01-25T04:04:34;26.5;;;6.0;;
77748;SDS011;66938;52.084;5.228;2024-01-25T04:06:10;23.8;;;5.6;;
77748;SDS011;66938;52.084;5.228;2024-01-25T04:07:46;23.4;;;5.4;;
77748;SDS011;66938;52.084;5.228;2024-01-25T04:10:59;26.2;;;5.7;;
77748;SDS011;66938;52.084;5.228;2024-01-25T04:12:35;22.7;;;5.2;;
77748;SDS011;66938;52.084;5.228;2024-01-25T04:14:11;26.3;;;5.6;;
77748;SDS011;66938;52.084;5.228;2024-01-25T04:17:23;26.3;;;5.6;;
77748;SDS011;66938;52.084;5.228;2024-01-25T04:18:59;25.9;;;5.5;;
77748;SDS011;66938;52.084;5.228;2024-01-25T04:20:35;27.8;;;6.0;;
77748;SDS011;66938;52.084;5.228;2024-01-25T04:22:11;27.4;;;6.2;;
77748;SDS011;66938;52.084;5.228;2024-01-25T04:25:26;27.0;;;7.0;;
77748;SDS011;66938;52.084;5.228;2024-01-25T04:27:02;29.1;;;5.9;;
77748;SDS011;66938;52.084;5.228;2024-01-25T04:28:38;23.6;;;5.8;;
77748;SDS011;66938;52.084;5.228;2024-01-25T04:31:51;25.5;;;6.6;;
77748;SDS011;66938;52.084;5.228;2024-01-25T04:33:27;25.2;;;6.2;;
77748;SDS011;66938;52.084;5.228;2024-01-25T04:35:03;26.7;;;6.2;;
77748;SDS011;66938;52.084;5.228;2024-01-25T04:38:16;31.1;;;6.1;;
77748;SDS011;66938;52.084;5.228;2024-01-25T04:39:52;26.5;;;5.5;;
77748;SDS011;66938;52.084;5.228;2024-01-25T04:41:28;23.7;;;5.2;;
77748;SDS011;66938;52.084;5.228;2024-01-25T04:44:40;27.0;;;5.4;;
77748;SDS011;66938;52.084;5.228;2024-01-25T04:46:17;24.8;;;5.7;;
77748;SDS011;66938;52.084;5.228;2024-01-25T04:47:53;22.2;;;5.3;;
77748;SDS011;66938;52.084;5.228;2024-01-25T04:49:29;28.2;;;5.9;;
77748;SDS011;66938;52.084;5.228;2024-01-25T04:52:41;25.1;;;5.4;;
77748;SDS011;66938;52.084;5.228;2024-01-25T04:54:17;24.5;;;5.9;;
77748;SDS011;66938;52.084;5.228;2024-01-25T04:55:54;29.1;;;5.4;;
77748;SDS011;66938;52.084;5.228;2024-01-25T04:59:06;25.1;;;5.8;;
77748;SDS011;66938;52.084;5.228;2024-01-25T05:00:42;27.1;;;5.6;;
77748;SDS011;66938;52.084;5.228;2024-01-25T05:02:19;20.5;;;4.7;;
77748;SDS011;66938;52.084;5.228;2024-01-25T05:05:31;32.1;;;6.5;;
77748;SDS011;66938;52.084;5.228;2024-01-25T05:07:07;27.1;;;5.9;;
77748;SDS011;66938;52.084;5.228;2024-01-25T05:08:43;26.3;;;6.2;;
77748;SDS011;66938;52.084;5.228;2024-01-25T05:10:19;28.5;;;6.4;;
77748;SDS011;66938;52.084;5.228;2024-01-25T05:13:31;26.5;;;6.3;;
77748;SDS011;66938;52.084;5.228;2024-01-25T05:15:07;29.0;;;6.1;;
77748;SDS011;66938;52.084;5.228;2024-01-25T05:16:44;26.4;;;6.2;;
77748;SDS011;66938;52.084;5.228;2024-01-25T05:19:56;25.2;;;5.5;;
77748;SDS011;66938;52.084;5.228;2024-01-25T05:21:32;28.6;;;6.4;;
77748;SDS011;66938;52.084;5.228;2024-01-25T05:23:08;26.2;;;6.1;;
77748;SDS011;66938;52.084;5.228;2024-01-25T05:26:20;28.0;;;5.4;;
77748;SDS011;66938;52.084;5.228;2024-01-25T05:27:56;22.8;;;5.6;;
77748;SDS011;66938;52.084;5.228;2024-01-25T05:29:33;23.0;;;5.3;;
77748;SDS011;66938;52.084;5.228;2024-01-25T05:32:45;27.9;;;5.9;;
77748;SDS011;66938;52.084;5.228;2024-01-25T05:34:22;30.9;;;6.5;;
77748;SDS011;66938;52.084;5.228;2024-01-25T05:35:58;30.5;;;6.6;;
77748;SDS011;66938;52.084;5.228;2024-01-25T05:37:34;24.6;;;6.4;;
77748;SDS011;66938;52.084;5.228;2024-01-25T05:40:46;27.6;;;5.7;;
77748;SDS011;66938;52.084;5.228;2024-01-25T05:42:22;31.6;;;7.0;;
77748;SDS011;66938;52.084;5.228;2024-01-25T05:43:58;30.1;;;7.1;;
77748;SDS011;66938;52.084;5.228;2024-01-25T05:47:11;28.5;;;6.5;;
77748;SDS011;66938;52.084;5.228;2024-01-25T05:48:48;26.4;;;5.7;;
77748;SDS011;66938;52.084;5.228;2024-01-25T05:50:24;32.21;;;6.7;;
77748;SDS011;66938;52.084;5.228;2024-01-25T05:53:36;29.5;;;7.1;;
77748;SDS011;66938;52.084;5.228;2024-01-25T05:55:12;27.7;;;6.7;;
77748;SDS011;66938;52.084;5.228;2024-01-25T05:56:48;29.3;;;7.1;;
77748;SDS011;66938;52.084;5.228;2024-01-25T05:58:24;27.8;;;7.0;;
77748;SDS011;66938;52.084;5.228;2024-01-25T06:01:36;28.6;;;7.3;;
77748;SDS011;66938;52.084;5.228;2024-01-25T06:03:12;26.4;;;6.5;;
77748;SDS011;66938;52.084;5.228;2024-01-25T06:04:49;31.3;;;7.3;;
77748;SDS011;66938;52.084;5.228;2024-01-25T06:08:01;29.8;;;6.1;;
77748;SDS011;66938;52.084;5.228;2024-01-25T06:09:37;22.7;;;6.1;;
77748;SDS011;66938;52.084;5.228;2024-01-25T06:11:13;30.7;;;6.8;;
77748;SDS011;66938;52.084;5.228;2024-01-25T06:14:25;29.9;;;6.5;;
77748;SDS011;66938;52.084;5.228;2024-01-25T06:16:05;32.0;;;6.7;;
77748;SDS011;66938;52.084;5.228;2024-01-25T06:17:41;22.2;;;5.6;;
77748;SDS011;66938;52.084;5.228;2024-01-25T06:20:54;26.1;;;6.0;;
77748;SDS011;66938;52.084;5.228;2024-01-25T06:22:30;30.1;;;6.4;;
77748;SDS011;66938;52.084;5.228;2024-01-25T06:24:06;22.2;;;5.6;;
77748;SDS011;66938;52.084;5.228;2024-01-25T06:25:42;27.0;;;5.2;;
77748;SDS011;66938;52.084;5.228;2024-01-25T06:28:57;30.2;;;7.1;;
77748;SDS011;66938;52.084;5.228;2024-01-25T06:30:33;24.8;;;5.8;;
77748;SDS011;66938;52.084;5.228;2024-01-25T06:32:09;30.9;;;6.9;;
77748;SDS011;66938;52.084;5.228;2024-01-25T06:35:22;25.8;;;5.8;;
77748;SDS011;66938;52.084;5.228;2024-01-25T06:36:59;25.8;;;6.1;;
77748;SDS011;66938;52.084;5.228;2024-01-25T06:38:38;28.8;;;6.0;;
77748;SDS011;66938;52.084;5.228;2024-01-25T06:41:51;31.0;;;7.4;;
77748;SDS011;66938;52.084;5.228;2024-01-25T06:43:27;33.0;;;7.0;;
77748;SDS011;66938;52.084;5.228;2024-01-25T06:45:03;25.5;;;6.2;;
77748;SDS011;66938;52.084;5.228;2024-01-25T06:46:39;28.9;;;7.1;;
77748;SDS011;66938;52.084;5.228;2024-01-25T06:49:52;25.4;;;6.7;;
77748;SDS011;66938;52.084;5.228;2024-01-25T06:51:28;29.1;;;7.9;;
77748;SDS011;66938;52.084;5.228;2024-01-25T06:53:04;26.2;;;6.7;;
77748;SDS011;66938;52.084;5.228;2024-01-25T06:56:16;33.71;;;8.0;;
77748;SDS011;66938;52.084;5.228;2024-01-25T06:57:52;21.5;;;6.3;;
77748;SDS011;66938;52.084;5.228;2024-01-25T06:59:28;21.5;;;6.3;;
77748;SDS011;66938;52.084;5.228;2024-01-25T07:02:40;28.3;;;7.5;;
77748;SDS011;66938;52.084;5.228;2024-01-25T07:04:16;35.1;;;8.2;;
77748;SDS011;66938;52.084;5.228;2024-01-25T07:05:53;31.8;;;8.5;;
77748;SDS011;66938;52.084;5.228;2024-01-25T07:07:29;30.1;;;8.2;;
77748;SDS011;66938;52.084;5.228;2024-01-25T07:10:41;28.7;;;7.6;;
77748;SDS011;66938;52.084;5.228;2024-01-25T07:12:17;32.3;;;9.1;;
77748;SDS011;66938;52.084;5.228;2024-01-25T07:13:53;30.0;;;7.7;;
77748;SDS011;66938;52.084;5.228;2024-01-25T07:17:05;26.8;;;8.1;;
77748;SDS011;66938;52.084;5.228;2024-01-25T07:18:41;28.6;;;7.8;;
77748;SDS011;66938;52.084;5.228;2024-01-25T07:20:17;24.3;;;7.6;;
77748;SDS011;66938;52.084;5.228;2024-01-25T07:23:33;34.0;;;9.0;;
77748;SDS011;66938;52.084;5.228;2024-01-25T07:25:10;38.6;;;9.71;;
77748;SDS011;66938;52.084;5.228;2024-01-25T07:26:46;34.6;;;9.0;;
77748;SDS011;66938;52.084;5.228;2024-01-25T07:28:22;31.2;;;8.5;;
77748;SDS011;66938;52.084;5.228;2024-01-25T07:31:35;27.9;;;8.2;;
77748;SDS011;66938;52.084;5.228;2024-01-25T07:33:11;25.7;;;9.21;;
77748;SDS011;66938;52.084;5.228;2024-01-25T07:34:47;21.5;;;9.6;;
77748;SDS011;66938;52.084;5.228;2024-01-25T07:37:59;27.9;;;11.0;;
77748;SDS011;66938;52.084;5.228;2024-01-25T07:39:35;31.8;;;10.0;;
77748;SDS011;66938;52.084;5.228;2024-01-25T07:41:12;43.5;;;19.0;;
77748;SDS011;66938;52.084;5.228;2024-01-25T07:44:24;41.5;;;17.8;;
77748;SDS011;66938;52.084;5.228;2024-01-25T07:46:00;30.2;;;13.0;;
77748;SDS011;66938;52.084;5.228;2024-01-25T07:47:36;33.0;;;14.3;;
77748;SDS011;66938;52.084;5.228;2024-01-25T07:50:48;40.4;;;15.7;;
77748;SDS011;66938;52.084;5.228;2024-01-25T07:52:24;38.71;;;18.8;;
77748;SDS011;66938;52.084;5.228;2024-01-25T07:54:00;50.8;;;26.8;;
77748;SDS011;66938;52.084;5.228;2024-01-25T07:55:36;38.6;;;21.1;;
77748;SDS011;66938;52.084;5.228;2024-01-25T07:58:49;37.31;;;22.3;;
77748;SDS011;66938;52.084;5.228;2024-01-25T08:00:25;40.71;;;22.9;;
77748;SDS011;66938;52.084;5.228;2024-01-25T08:02:01;28.8;;;17.11;;
77748;SDS011;66938;52.084;5.228;2024-01-25T08:05:13;29.4;;;13.2;;
77748;SDS011;66938;52.084;5.228;2024-01-25T08:06:49;45.4;;;16.3;;
77748;SDS011;66938;52.084;5.228;2024-01-25T08:08:26;33.9;;;14.0;;
77748;SDS011;66938;52.084;5.228;2024-01-25T08:11:40;38.0;;;14.1;;
77748;SDS011;66938;52.084;5.228;2024-01-25T08:13:17;41.4;;;15.4;;
77748;SDS011;66938;52.084;5.228;2024-01-25T08:14:53;40.9;;;14.5;;
77748;SDS011;66938;52.084;5.228;2024-01-25T08:16:29;33.9;;;11.6;;
77748;SDS011;66938;52.084;5.228;2024-01-25T08:19:41;44.6;;;13.4;;
77748;SDS011;66938;52.084;5.228;2024-01-25T08:21:17;36.9;;;12.7;;
77748;SDS011;66938;52.084;5.228;2024-01-25T08:22:53;30.1;;;10.21;;
77748;SDS011;66938;52.084;5.228;2024-01-25T08:26:06;25.7;;;9.1;;
77748;SDS011;66938;52.084;5.228;2024-01-25T08:27:43;25.7;;;9.5;;
77748;SDS011;66938;52.084;5.228;2024-01-25T08:29:19;23.5;;;9.0;;
77748;SDS011;66938;52.084;5.228;2024-01-25T08:32:33;24.2;;;9.1;;
77748;SDS011;66938;52.084;5.228;2024-01-25T08:34:09;28.1;;;9.1;;
77748;SDS011;66938;52.084;5.228;2024-01-25T08:35:45;31.1;;;8.81;;
77748;SDS011;66938;52.084;5.228;2024-01-25T08:38:58;35.9;;;9.1;;
77748;SDS011;66938;52.084;5.228;2024-01-25T08:40:34;33.5;;;9.0;;
77748;SDS011;66938;52.084;5.228;2024-01-25T08:42:10;32.21;;;9.21;;
77748;SDS011;66938;52.084;5.228;2024-01-25T08:43:46;36.1;;;9.0;;
77748;SDS011;66938;52.084;5.228;2024-01-25T08:46:58;34.6;;;10.7;;
77748;SDS011;66938;52.084;5.228;2024-01-25T08:48:34;34.6;;;10.7;;
77748;SDS011;66938;52.084;5.228;2024-01-25T08:50:10;25.2;;;8.6;;
77748;SDS011;66938;52.084;5.228;2024-01-25T08:53:22;21.3;;;7.3;;
77748;SDS011;66938;52.084;5.228;2024-01-25T08:55:00;26.7;;;7.9;;
77748;SDS011;66938;52.084;5.228;2024-01-25T08:56:36;28.6;;;8.31;;
77748;SDS011;66938;52.084;5.228;2024-01-25T08:59:48;29.7;;;9.1;;
77748;SDS011;66938;52.084;5.228;2024-01-25T09:01:24;36.31;;;8.9;;
77748;SDS011;66938;52.084;5.228;2024-01-25T09:03:00;31.0;;;8.31;;
77748;SDS011;66938;52.084;5.228;2024-01-25T09:04:39;31.3;;;8.71;;
77748;SDS011;66938;52.084;5.228;2024-01-25T09:07:51;33.4;;;9.21;;
77748;SDS011;66938;52.084;5.228;2024-01-25T09:09:27;33.4;;;8.71;;
77748;SDS011;66938;52.084;5.228;2024-01-25T09:11:04;32.9;;;8.4;;
77748;SDS011;66938;52.084;5.228;2024-01-25T09:14:16;34.4;;;9.1;;
77748;SDS011;66938;52.084;5.228;2024-01-25T09:15:52;33.0;;;8.9;;
77748;SDS011;66938;52.084;5.228;2024-01-25T09:17:28;25.5;;;7.1;;
77748;SDS011;66938;52.084;5.228;2024-01-25T09:20:40;27.0;;;7.9;;
77748;SDS011;66938;52.084;5.228;2024-01-25T09:22:17;28.6;;;7.0;;
77748;SDS011;66938;52.084;5.228;2024-01-25T09:23:54;25.4;;;6.9;;
77748;SDS011;66938;52.084;5.228;2024-01-25T09:25:30;26.1;;;7.4;;
77748;SDS011;66938;52.084;5.228;2024-01-25T09:28:42;29.5;;;8.4;;
77748;SDS011;66938;52.084;5.228;2024-01-25T09:30:18;31.9;;;7.6;;
77748;SDS011;66938;52.084;5.228;2024-01-25T09:31:54;31.1;;;8.1;;
77748;SDS011;66938;52.084;5.228;2024-01-25T09:35:06;23.4;;;6.4;;
77748;SDS011;66938;52.084;5.228;2024-01-25T09:36:44;31.4;;;8.1;;
77748;SDS011;66938;52.084;5.228;2024-01-25T09:38:20;31.4;;;8.1;;
77748;SDS011;66938;52.084;5.228;2024-01-25T09:41:33;26.1;;;7.7;;
77748;SDS011;66938;52.084;5.228;2024-01-25T09:43:09;31.7;;;8.0;;
77748;SDS011;66938;52.084;5.228;2024-01-25T09:44:45;27.0;;;7.5;;
77748;SDS011;66938;52.084;5.228;2024-01-25T09:47:58;36.21;;;8.9;;
77748;SDS011;66938;52.084;5.228;2024-01-25T09:49:34;29.8;;;7.4;;
77748;SDS011;66938;52.084;5.228;2024-01-25T09:51:10;24.4;;;6.8;;
77748;SDS011;66938;52.084;5.228;2024-01-25T09:52:52;20.9;;;5.9;;
77748;SDS011;66938;52.084;5.228;2024-01-25T09:56:09;22.8;;;6.5;;
77748;SDS011;66938;52.084;5.228;2024-01-25T09:57:48;22.7;;;6.1;;
77748;SDS011;66938;52.084;5.228;2024-01-25T09:59:29;23.5;;;7.0;;
77748;SDS011;66938;52.084;5.228;2024-01-25T10:01:07;27.1;;;7.1;;
77748;SDS011;66938;52.084;5.228;2024-01-25T10:04:20;26.2;;;7.0;;
77748;SDS011;66938;52.084;5.228;2024-01-25T10:05:56;29.9;;;8.0;;
77748;SDS011;66938;52.084;5.228;2024-01-25T10:07:35;26.4;;;8.0;;
77748;SDS011;66938;52.084;5.228;2024-01-25T10:10:47;28.0;;;8.0;;
77748;SDS011;66938;52.084;5.228;2024-01-25T10:12:23;33.21;;;7.9;;
77748;SDS011;66938;52.084;5.228;2024-01-25T10:13:59;33.4;;;8.5;;
77748;SDS011;66938;52.084;5.228;2024-01-25T10:17:14;27.3;;;7.5;;
77748;SDS011;66938;52.084;5.228;2024-01-25T10:18:51;25.7;;;7.5;;
77748;SDS011;66938;52.084;5.228;2024-01-25T10:20:30;31.1;;;8.0;;
77748;SDS011;66938;52.084;5.228;2024-01-25T10:22:06;30.3;;;8.31;;
77748;SDS011;66938;52.084;5.228;2024-01-25T10:25:20;25.1;;;6.7;;
77748;SDS011;66938;52.084;5.228;2024-01-25T10:26:57;26.6;;;7.9;;
77748;SDS011;66938;52.084;5.228;2024-01-25T10:28:33;26.5;;;7.8;;
77748;SDS011;66938;52.084;5.228;2024-01-25T10:31:48;22.4;;;7.2;;
77748;SDS011;66938;52.084;5.228;2024-01-25T10:33:24;29.3;;;8.6;;
77748;SDS011;66938;52.084;5.228;2024-01-25T10:35:02;27.1;;;8.4;;
77748;SDS011;66938;52.084;5.228;2024-01-25T10:36:39;29.9;;;8.81;;
77748;SDS011;66938;52.084;5.228;2024-01-25T10:39:53;27.5;;;7.7;;
77748;SDS011;66938;52.084;5.228;2024-01-25T10:41:31;28.5;;;8.6;;
77748;SDS011;66938;52.084;5.228;2024-01-25T10:43:08;26.9;;;8.0;;
77748;SDS011;66938;52.084;5.228;2024-01-25T10:46:20;31.7;;;8.4;;
77748;SDS011;66938;52.084;5.228;2024-01-25T10:47:57;35.6;;;9.9;;
77748;SDS011;66938;52.084;5.228;2024-01-25T10:49:35;30.8;;;8.5;;
77748;SDS011;66938;52.084;5.228;2024-01-25T10:52:49;23.3;;;7.7;;
77748;SDS011;66938;52.084;5.228;2024-01-25T10:54:25;34.0;;;8.81;;
77748;SDS011;66938;52.084;5.228;2024-01-25T10:56:03;27.0;;;8.31;;
77748;SDS011;66938;52.084;5.228;2024-01-25T10:57:42;28.1;;;8.0;;
77748;SDS011;66938;52.084;5.228;2024-01-25T11:00:59;30.0;;;8.5;;
77748;SDS011;66938;52.084;5.228;2024-01-25T11:04:20;30.0;;;9.0;;
77748;SDS011;66938;52.084;5.228;2024-01-25T11:06:05;29.6;;;9.4;;
77748;SDS011;66938;52.084;5.228;2024-01-25T11:09:21;32.21;;;8.6;;
77748;SDS011;66938;52.084;5.228;2024-01-25T11:10:57;31.0;;;8.9;;
77748;SDS011;66938;52.084;5.228;2024-01-25T11:12:33;28.5;;;8.71;;
77748;SDS011;66938;52.084;5.228;2024-01-25T11:15:48;29.3;;;8.9;;
77748;SDS011;66938;52.084;5.228;2024-01-25T11:17:24;29.0;;;8.81;;
77748;SDS011;66938;52.084;5.228;2024-01-25T11:19:00;29.2;;;9.0;;
77748;SDS011;66938;52.084;5.228;2024-01-25T11:20:36;28.2;;;8.5;;
77748;SDS011;66938;52.084;5.228;2024-01-25T11:23:48;33.21;;;9.4;;
77748;SDS011;66938;52.084;5.228;2024-01-25T11:25:27;24.3;;;7.8;;
77748;SDS011;66938;52.084;5.228;2024-01-25T11:27:04;31.2;;;8.71;;
77748;SDS011;66938;52.084;5.228;2024-01-25T11:30:17;31.1;;;8.31;;
77748;SDS011;66938;52.084;5.228;2024-01-25T11:31:54;29.4;;;8.71;;
77748;SDS011;66938;52.084;5.228;2024-01-25T11:33:30;36.21;;;9.5;;
77748;SDS011;66938;52.084;5.228;2024-01-25T11:36:43;30.4;;;9.71;;
77748;SDS011;66938;52.084;5.228;2024-01-25T11:38:21;31.4;;;9.71;;
77748;SDS011;66938;52.084;5.228;2024-01-25T11:39:57;32.8;;;8.71;;
77748;SDS011;66938;52.084;5.228;2024-01-25T11:41:34;31.9;;;9.0;;
77748;SDS011;66938;52.084;5.228;2024-01-25T11:44:46;29.9;;;9.0;;
77748;SDS011;66938;52.084;5.228;2024-01-25T11:46:22;28.5;;;8.2;;
77748;SDS011;66938;52.084;5.228;2024-01-25T11:47:59;31.8;;;8.9;;
77748;SDS011;66938;52.084;5.228;2024-01-25T11:51:11;28.0;;;8.5;;
77748;SDS011;66938;52.084;5.228;2024-01-25T11:52:48;33.6;;;9.5;;
77748;SDS011;66938;52.084;5.228;2024-01-25T11:54:24;30.4;;;9.1;;
77748;SDS011;66938;52.084;5.228;2024-01-25T11:57:38;29.7;;;8.81;;
77748;SDS011;66938;52.084;5.228;2024-01-25T11:59:20;27.9;;;8.0;;
77748;SDS011;66938;52.084;5.228;2024-01-25T12:00:56;31.2;;;8.71;;
77748;SDS011;66938;52.084;5.228;2024-01-25T12:02:32;32.8;;;9.71;;
77748;SDS011;66938;52.084;5.228;2024-01-25T12:05:45;32.0;;;10.4;;
77748;SDS011;66938;52.084;5.228;2024-01-25T12:07:21;31.6;;;9.9;;
77748;SDS011;66938;52.084;5.228;2024-01-25T12:09:05;27.0;;;8.81;;
77748;SDS011;66938;52.084;5.228;2024-01-25T12:12:17;34.6;;;10.3;;
77748;SDS011;66938;52.084;5.228;2024-01-25T12:13:54;29.1;;;9.31;;
77748;SDS011;66938;52.084;5.228;2024-01-25T12:15:31;30.8;;;9.71;;
77748;SDS011;66938;52.084;5.228;2024-01-25T12:17:08;31.3;;;9.9;;
77748;SDS011;66938;52.084;5.228;2024-01-25T12:20:20;30.6;;;10.5;;
77748;SDS011;66938;52.084;5.228;2024-01-25T12:21:56;32.9;;;10.7;;
77748;SDS011;66938;52.084;5.228;2024-01-25T12:23:33;31.6;;;9.71;;
77748;SDS011;66938;52.084;5.228;2024-01-25T12:26:46;29.8;;;9.31;;
77748;SDS011;66938;52.084;5.228;2024-01-25T12:28:23;27.0;;;9.81;;
77748;SDS011;66938;52.084;5.228;2024-01-25T12:30:01;30.5;;;9.71;;
77748;SDS011;66938;52.084;5.228;2024-01-25T12:33:13;32.0;;;10.5;;
77748;SDS011;66938;52.084;5.228;2024-01-25T12:34:53;33.21;;;10.7;;
77748;SDS011;66938;52.084;5.228;2024-01-25T12:36:29;32.9;;;10.5;;
77748;SDS011;66938;52.084;5.228;2024-01-25T12:38:06;34.71;;;11.0;;
77748;SDS011;66938;52.084;5.228;2024-01-25T12:41:19;33.9;;;10.5;;
77748;SDS011;66938;52.084;5.228;2024-01-25T12:42:55;30.7;;;9.9;;
77748;SDS011;66938;52.084;5.228;2024-01-25T12:44:32;29.9;;;10.1;;